Ferry Kyoto II — JI3701 — position and weather

sailwx.info

Track history (hours):
 
Tides and Currents Weather Stations Pressure Air Temp Water Temp Dewpoint Dewpoint Depression Visibility Wind Speed Wind Dir Waves Ship Positions

Ferry Kyoto II

Last reported at 2016-Dec-07 09:34 UTC. Time now 2016-Dec-08 14:23 UTC.
Position N 34°36' E 134°55'.

Length 167 m; draft 5.9 m.

Type: Ship. MMSI: 431301641.

Date/timePositionNaut miles runAvg speedWind from/ knotsBaromVisibWave heightAir tempDewpointWater temp
2016-Dec-07 09:34N 34°36' E 134°55'2020.1
2016-Dec-07 08:34N 34°37' E 135°20'5 5.0
2016-Dec-07 07:32N 34°37' E 135°26'0 0.0
2016-Dec-07 06:26N 34°37' E 135°26'0 0.0
2016-Dec-07 05:32N 34°37' E 135°26'0 0.0
2016-Dec-07 04:32N 34°37' E 135°26'0 0.0
2016-Dec-07 03:32N 34°37' E 135°26'0 0.0
2016-Dec-07 02:32N 34°37' E 135°26'0 0.0
2016-Dec-07 01:32N 34°37' E 135°26'0 0.0
2016-Dec-07 00:32N 34°37' E 135°26'0 0.0
2016-Dec-06 23:32N 34°37' E 135°26'0 0.0
2016-Dec-06 22:32N 34°37' E 135°26'0 0.0
2016-Dec-06 21:32N 34°37' E 135°26'0 0.0
2016-Dec-06 20:32N 34°37' E 135°26'3316.2
2016-Dec-06 18:30N 34°33' E 134°46'8 0.3
2016-Dec-05 09:33N 34°36' E 134°55'2019.6
2016-Dec-05 08:33N 34°37' E 135°19'6 5.4
2016-Dec-05 07:32N 34°37' E 135°26'0 0.0
2016-Dec-05 06:20N 34°37' E 135°26'0 0.0
2016-Dec-05 05:08N 34°37' E 135°26'0 0.0
2016-Dec-05 04:26N 34°37' E 135°26'0 0.0
2016-Dec-05 03:32N 34°37' E 135°26'0 0.0
2016-Dec-05 02:26N 34°37' E 135°26'0 0.0
2016-Dec-05 01:26N 34°37' E 135°26'0 0.0
2016-Dec-05 00:26N 34°37' E 135°26'0 0.0
2016-Dec-04 23:26N 34°37' E 135°26'0 0.0
2016-Dec-04 22:32N 34°37' E 135°26'0 0.0
2016-Dec-04 21:26N 34°37' E 135°26'0 0.0
2016-Dec-04 20:32N 34°37' E 135°26'1111.7
2016-Dec-04 19:33N 34°35' E 135°12'2019.9
2016-Dec-04 18:33N 34°32' E 134°48'6 0.2
2016-Dec-03 09:33N 34°36' E 134°54'1919.7
2016-Dec-03 08:33N 34°36' E 135°17'7 6.8
2016-Dec-03 07:31N 34°37' E 135°26'0 0.0
2016-Dec-03 06:31N 34°37' E 135°26'0 0.0
2016-Dec-03 05:25N 34°37' E 135°26'0 0.0
2016-Dec-03 04:31N 34°37' E 135°26'0 0.0
2016-Dec-03 03:31N 34°37' E 135°26'0 0.0
2016-Dec-03 02:31N 34°37' E 135°26'0 0.0
2016-Dec-03 01:31N 34°37' E 135°26'0 0.0
2016-Dec-03 00:19N 34°37' E 135°26'0 0.0
2016-Dec-02 23:31N 34°37' E 135°26'0 0.0
2016-Dec-02 22:31N 34°37' E 135°26'0 0.0
2016-Dec-02 21:25N 34°37' E 135°26'0 0.0
2016-Dec-02 20:32N 34°37' E 135°26'10 9.8
2016-Dec-02 19:33N 34°35' E 135°14'2020.1
2016-Dec-02 18:33N 34°33' E 134°50'5 0.2
2016-Dec-01 09:33N 34°36' E 134°55'1919.4
2016-Dec-01 08:33N 34°37' E 135°18'6 5.3
2016-Dec-01 07:22N 34°37' E 135°26'0 0.0
2016-Dec-01 06:22N 34°37' E 135°26'0 0.0
2016-Dec-01 05:28N 34°37' E 135°26'0 0.0
2016-Dec-01 04:16N 34°37' E 135°26'0 0.0
2016-Dec-01 03:28N 34°37' E 135°26'0 0.0
2016-Dec-01 02:16N 34°37' E 135°26'0 0.0
2016-Dec-01 01:28N 34°37' E 135°26'0 0.0
2016-Dec-01 00:28N 34°37' E 135°26'0 0.0
2016-Nov-30 23:28N 34°37' E 135°26'0 0.0
2016-Nov-30 22:28N 34°37' E 135°26'0 0.0
2016-Nov-30 21:22N 34°37' E 135°26'0 0.0
2016-Nov-30 20:29N 34°37' E 135°26'1011.3
2016-Nov-30 19:33N 34°35' E 135°13'2120.1
2016-Nov-30 18:30N 34°33' E 134°48'5 0.1
2016-Nov-29 09:33N 34°35' E 134°53'2120.6
2016-Nov-29 08:33N 34°37' E 135°18'7 6.0
2016-Nov-29 07:26N 34°37' E 135°26'0 0.0
2016-Nov-29 06:32N 34°37' E 135°26'0 0.0
2016-Nov-29 05:33N 34°37' E 135°26'0 0.0
2016-Nov-29 04:32N 34°37' E 135°26'0 0.0
2016-Nov-29 03:26N 34°37' E 135°26'0 0.0
2016-Nov-29 02:32N 34°37' E 135°26'0 0.0
2016-Nov-29 01:32N 34°37' E 135°26'0 0.0
2016-Nov-29 00:32N 34°37' E 135°26'0 0.0
2016-Nov-28 23:32N 34°37' E 135°26'0 0.0
2016-Nov-28 22:32N 34°37' E 135°26'0 0.0
2016-Nov-28 21:32N 34°37' E 135°26'0 0.0
2016-Nov-28 20:33N 34°37' E 135°26'1211.8
2016-Nov-28 19:33N 34°35' E 135°12'1919.1
2016-Nov-28 18:33N 34°33' E 134°49'  
Track history (hours):
 
Tides and Currents Weather Stations Pressure Air Temp Water Temp Dewpoint Dewpoint Depression Visibility Wind Speed Wind Dir Waves Ship Positions

Ferry Kyoto II

Last reported at 2016-Dec-07 09:34 UTC. Time now 2016-Dec-08 14:23 UTC.
Position N 34°36' E 134°55'.

Length 167 m; draft 5.9 m.

Type: Ship. MMSI: 431301641.

Date/timePositionNaut miles runAvg speedWind from/ knotsBaromVisibWave heightAir tempDewpointWater temp
2016-Dec-07 09:34N 34°36' E 134°55'2020.1
2016-Dec-07 08:34N 34°37' E 135°20'5 5.0
2016-Dec-07 07:32N 34°37' E 135°26'0 0.0
2016-Dec-07 06:26N 34°37' E 135°26'0 0.0
2016-Dec-07 05:32N 34°37' E 135°26'0 0.0
2016-Dec-07 04:32N 34°37' E 135°26'0 0.0
2016-Dec-07 03:32N 34°37' E 135°26'0 0.0
2016-Dec-07 02:32N 34°37' E 135°26'0 0.0
2016-Dec-07 01:32N 34°37' E 135°26'0 0.0
2016-Dec-07 00:32N 34°37' E 135°26'0 0.0
2016-Dec-06 23:32N 34°37' E 135°26'0 0.0
2016-Dec-06 22:32N 34°37' E 135°26'0 0.0
2016-Dec-06 21:32N 34°37' E 135°26'0 0.0
2016-Dec-06 20:32N 34°37' E 135°26'3316.2
2016-Dec-06 18:30N 34°33' E 134°46'8 0.3
2016-Dec-05 09:33N 34°36' E 134°55'2019.6
2016-Dec-05 08:33N 34°37' E 135°19'6 5.4
2016-Dec-05 07:32N 34°37' E 135°26'0 0.0
2016-Dec-05 06:20N 34°37' E 135°26'0 0.0
2016-Dec-05 05:08N 34°37' E 135°26'0 0.0
2016-Dec-05 04:26N 34°37' E 135°26'0 0.0
2016-Dec-05 03:32N 34°37' E 135°26'0 0.0
2016-Dec-05 02:26N 34°37' E 135°26'0 0.0
2016-Dec-05 01:26N 34°37' E 135°26'0 0.0
2016-Dec-05 00:26N 34°37' E 135°26'0 0.0
2016-Dec-04 23:26N 34°37' E 135°26'0 0.0
2016-Dec-04 22:32N 34°37' E 135°26'0 0.0
2016-Dec-04 21:26N 34°37' E 135°26'0 0.0
2016-Dec-04 20:32N 34°37' E 135°26'1111.7
2016-Dec-04 19:33N 34°35' E 135°12'2019.9
2016-Dec-04 18:33N 34°32' E 134°48'6 0.2
2016-Dec-03 09:33N 34°36' E 134°54'1919.7
2016-Dec-03 08:33N 34°36' E 135°17'7 6.8
2016-Dec-03 07:31N 34°37' E 135°26'0 0.0
2016-Dec-03 06:31N 34°37' E 135°26'0 0.0
2016-Dec-03 05:25N 34°37' E 135°26'0 0.0
2016-Dec-03 04:31N 34°37' E 135°26'0 0.0
2016-Dec-03 03:31N 34°37' E 135°26'0 0.0
2016-Dec-03 02:31N 34°37' E 135°26'0 0.0
2016-Dec-03 01:31N 34°37' E 135°26'0 0.0
2016-Dec-03 00:19N 34°37' E 135°26'0 0.0
2016-Dec-02 23:31N 34°37' E 135°26'0 0.0
2016-Dec-02 22:31N 34°37' E 135°26'0 0.0
2016-Dec-02 21:25N 34°37' E 135°26'0 0.0
2016-Dec-02 20:32N 34°37' E 135°26'10 9.8
2016-Dec-02 19:33N 34°35' E 135°14'2020.1
2016-Dec-02 18:33N 34°33' E 134°50'5 0.2
2016-Dec-01 09:33N 34°36' E 134°55'1919.4
2016-Dec-01 08:33N 34°37' E 135°18'6 5.3
2016-Dec-01 07:22N 34°37' E 135°26'0 0.0
2016-Dec-01 06:22N 34°37' E 135°26'0 0.0
2016-Dec-01 05:28N 34°37' E 135°26'0 0.0
2016-Dec-01 04:16N 34°37' E 135°26'0 0.0
2016-Dec-01 03:28N 34°37' E 135°26'0 0.0
2016-Dec-01 02:16N 34°37' E 135°26'0 0.0
2016-Dec-01 01:28N 34°37' E 135°26'0 0.0
2016-Dec-01 00:28N 34°37' E 135°26'0 0.0
2016-Nov-30 23:28N 34°37' E 135°26'0 0.0
2016-Nov-30 22:28N 34°37' E 135°26'0 0.0
2016-Nov-30 21:22N 34°37' E 135°26'0 0.0
2016-Nov-30 20:29N 34°37' E 135°26'1011.3
2016-Nov-30 19:33N 34°35' E 135°13'2120.1
2016-Nov-30 18:30N 34°33' E 134°48'5 0.1
2016-Nov-29 09:33N 34°35' E 134°53'2120.6
2016-Nov-29 08:33N 34°37' E 135°18'7 6.0
2016-Nov-29 07:26N 34°37' E 135°26'0 0.0
2016-Nov-29 06:32N 34°37' E 135°26'0 0.0
2016-Nov-29 05:33N 34°37' E 135°26'0 0.0
2016-Nov-29 04:32N 34°37' E 135°26'0 0.0
2016-Nov-29 03:26N 34°37' E 135°26'0 0.0
2016-Nov-29 02:32N 34°37' E 135°26'0 0.0
2016-Nov-29 01:32N 34°37' E 135°26'0 0.0
2016-Nov-29 00:32N 34°37' E 135°26'0 0.0
2016-Nov-28 23:32N 34°37' E 135°26'0 0.0
2016-Nov-28 22:32N 34°37' E 135°26'0 0.0
2016-Nov-28 21:32N 34°37' E 135°26'0 0.0
2016-Nov-28 20:33N 34°37' E 135°26'1211.8
2016-Nov-28 19:33N 34°35' E 135°12'1919.1
2016-Nov-28 18:33N 34°33' E 134°49'  

Dump ship's entire track history